createdAt,value
2023-05-12T00:02:21.470Z,11.89
2023-05-12T00:04:48.576Z,11.73
2023-05-12T00:07:16.104Z,11.74
2023-05-12T00:09:43.220Z,11.88
2023-05-12T00:12:10.308Z,11.87
2023-05-12T00:14:37.870Z,11.77
2023-05-12T00:17:06.691Z,11.83
2023-05-12T00:19:34.725Z,11.82
2023-05-12T00:22:02.310Z,11.68
2023-05-12T00:24:30.664Z,11.67
2023-05-12T00:26:58.044Z,11.72
2023-05-12T00:29:25.579Z,11.71
2023-05-12T00:31:52.949Z,11.81
2023-05-12T00:34:20.391Z,11.80
2023-05-12T00:36:47.761Z,11.78
2023-05-12T00:39:15.209Z,11.78
2023-05-12T00:41:42.827Z,11.82
2023-05-12T00:44:10.228Z,11.78
2023-05-12T00:46:37.829Z,11.70
2023-05-12T00:49:05.289Z,11.65
2023-05-12T00:51:33.087Z,11.63
2023-05-12T00:54:00.500Z,11.60
2023-05-12T00:56:27.896Z,11.73
2023-05-12T00:58:55.314Z,11.78
2023-05-12T01:01:22.843Z,11.70
2023-05-12T01:03:50.627Z,11.72
2023-05-12T01:06:48.217Z,11.69
2023-05-12T01:09:16.070Z,11.62
2023-05-12T01:11:43.406Z,11.65
2023-05-12T01:14:10.838Z,11.63
2023-05-12T01:16:50.497Z,11.62
2023-05-12T01:19:49.498Z,11.64
2023-05-12T01:22:18.071Z,11.61
2023-05-12T01:25:00.050Z,11.54
2023-05-12T01:27:28.492Z,11.53
2023-05-12T01:30:04.600Z,11.52
2023-05-12T01:32:32.082Z,11.50
2023-05-12T01:35:00.076Z,11.57
2023-05-12T01:37:27.565Z,11.54
2023-05-12T01:39:55.089Z,11.59
2023-05-12T01:42:22.532Z,11.55
2023-05-12T01:44:52.246Z,11.53
2023-05-12T01:47:20.937Z,11.61
2023-05-12T01:49:48.514Z,11.50
2023-05-12T01:52:15.864Z,11.53
2023-05-12T01:54:42.847Z,11.55
2023-05-12T01:57:10.266Z,11.55
2023-05-12T01:59:37.625Z,11.57
2023-05-12T02:02:04.831Z,11.62
2023-05-12T02:04:31.833Z,11.60
2023-05-12T02:06:58.968Z,11.61
2023-05-12T02:09:26.086Z,11.57
2023-05-12T02:11:53.992Z,11.62
2023-05-12T02:14:21.038Z,11.59
2023-05-12T02:16:52.547Z,11.57
2023-05-12T02:19:21.013Z,11.60
2023-05-12T02:21:48.712Z,11.63
2023-05-12T02:24:16.802Z,11.60
2023-05-12T02:26:44.070Z,11.52
2023-05-12T02:29:12.000Z,11.51
2023-05-12T02:31:39.316Z,11.53
2023-05-12T02:34:06.924Z,11.57
2023-05-12T02:36:34.112Z,11.60
2023-05-12T02:39:01.210Z,11.60
2023-05-12T02:41:28.198Z,11.51
2023-05-12T02:43:55.201Z,11.46
2023-05-12T02:46:22.281Z,11.47
2023-05-12T02:48:49.322Z,11.51
2023-05-12T02:51:16.288Z,11.46
2023-05-12T02:53:43.249Z,11.48
2023-05-12T02:56:10.450Z,11.50
2023-05-12T02:58:37.719Z,11.45
2023-05-12T03:01:10.687Z,11.46
2023-05-12T03:03:39.086Z,11.52
2023-05-12T03:06:07.111Z,11.52
2023-05-12T03:08:34.105Z,11.56
2023-05-12T03:11:01.177Z,11.49
2023-05-12T03:13:28.516Z,11.54
2023-05-12T03:15:55.893Z,11.61
2023-05-12T03:18:23.082Z,11.57
2023-05-12T03:20:50.121Z,11.56
2023-05-12T03:23:17.203Z,11.54
2023-05-12T03:25:44.276Z,11.53
2023-05-12T03:28:11.653Z,11.51
2023-05-12T03:30:38.736Z,11.49
2023-05-12T03:33:05.771Z,11.46
2023-05-12T03:35:32.837Z,11.51
2023-05-12T03:37:59.862Z,11.47
2023-05-12T03:40:26.814Z,11.46
2023-05-12T03:42:53.769Z,11.46
2023-05-12T03:45:21.384Z,11.46
2023-05-12T03:47:48.526Z,11.41
2023-05-12T03:50:16.088Z,11.40
2023-05-12T03:52:43.577Z,11.33
2023-05-12T03:55:10.998Z,11.39
2023-05-12T03:57:38.379Z,11.48
2023-05-12T04:00:06.691Z,11.43
2023-05-12T04:02:33.978Z,11.43
2023-05-12T04:05:01.337Z,11.44
2023-05-12T04:07:28.561Z,11.49
2023-05-12T04:09:55.685Z,11.49
2023-05-12T04:12:23.534Z,11.42
2023-05-12T04:14:51.145Z,11.43
2023-05-12T04:17:19.279Z,11.40
2023-05-12T04:19:57.777Z,11.52
2023-05-12T04:22:26.304Z,11.57
2023-05-12T04:24:53.572Z,11.62
2023-05-12T04:27:20.564Z,11.59
2023-05-12T04:29:47.607Z,11.60
2023-05-12T04:32:14.665Z,11.63
2023-05-12T04:34:41.746Z,11.64
2023-05-12T04:37:08.719Z,11.68
2023-05-12T04:39:35.764Z,11.69
2023-05-12T04:42:02.933Z,11.73
2023-05-12T04:44:29.991Z,11.70
2023-05-12T04:46:58.263Z,11.70
2023-05-12T04:49:25.399Z,11.74
2023-05-12T04:51:52.806Z,11.74
2023-05-12T04:54:21.280Z,11.72
2023-05-12T04:56:48.285Z,11.79
2023-05-12T04:59:18.333Z,11.80
2023-05-12T05:01:45.988Z,11.73
2023-05-12T05:04:13.154Z,11.79
2023-05-12T05:06:40.137Z,11.86
2023-05-12T05:09:07.350Z,11.75
2023-05-12T05:11:34.479Z,11.92
2023-05-12T05:14:01.452Z,11.84
2023-05-12T05:16:29.149Z,11.91
2023-05-12T05:18:58.285Z,11.86
2023-05-12T05:21:25.500Z,11.85
2023-05-12T05:23:53.169Z,11.88
2023-05-12T05:26:21.644Z,11.90
2023-05-12T05:28:48.719Z,12.04
2023-05-12T05:31:17.404Z,12.01
2023-05-12T05:33:44.866Z,12.02
2023-05-12T05:36:12.068Z,12.07
2023-05-12T05:38:39.210Z,12.13
2023-05-12T05:41:06.777Z,12.24
2023-05-12T05:43:33.759Z,12.34
2023-05-12T05:46:00.828Z,12.39
2023-05-12T05:48:27.893Z,12.40
2023-05-12T05:50:54.962Z,12.31
2023-05-12T05:53:22.789Z,12.36
2023-05-12T05:55:50.058Z,12.32
2023-05-12T05:58:17.532Z,12.43
2023-05-12T06:00:44.695Z,12.39
2023-05-12T06:03:11.850Z,12.44
2023-05-12T06:05:39.208Z,12.50
2023-05-12T06:08:09.020Z,12.65
2023-05-12T06:10:36.592Z,12.52
2023-05-12T06:13:03.674Z,12.45
2023-05-12T06:15:30.751Z,12.55
2023-05-12T06:17:58.198Z,12.62
2023-05-12T06:20:26.024Z,12.79
2023-05-12T06:22:52.978Z,12.78
2023-05-12T06:25:20.310Z,12.65
2023-05-12T06:27:47.462Z,12.86
2023-05-12T06:30:16.119Z,12.83
2023-05-12T06:32:43.952Z,12.75
2023-05-12T06:35:11.801Z,12.78
2023-05-12T06:37:39.256Z,12.92
2023-05-12T06:40:07.536Z,13.11
2023-05-12T06:42:34.570Z,13.22
2023-05-12T06:45:01.698Z,13.21
2023-05-12T06:47:29.098Z,13.10
2023-05-12T06:49:56.116Z,13.33
2023-05-12T06:52:24.089Z,13.44
2023-05-12T06:54:51.552Z,13.45
2023-05-12T06:57:18.532Z,13.37
2023-05-12T06:59:45.543Z,13.57
2023-05-12T07:02:12.634Z,13.38
2023-05-12T07:04:39.613Z,13.54
2023-05-12T07:07:06.575Z,13.66
2023-05-12T07:09:33.686Z,13.62
2023-05-12T07:12:00.854Z,13.53
2023-05-12T07:14:27.806Z,13.60
2023-05-12T07:16:54.889Z,13.72
2023-05-12T07:19:21.803Z,13.72
2023-05-12T07:21:49.272Z,13.81
2023-05-12T07:24:16.819Z,13.81
2023-05-12T07:26:44.609Z,13.78
2023-05-12T07:29:13.677Z,13.86
2023-05-12T07:31:41.295Z,13.73
2023-05-12T07:34:08.423Z,13.99
2023-05-12T07:36:37.029Z,14.05
2023-05-12T07:39:04.158Z,14.21
2023-05-12T07:41:32.560Z,14.21
2023-05-12T07:44:02.482Z,14.17
2023-05-12T07:46:29.523Z,14.07
2023-05-12T07:48:57.399Z,13.99
2023-05-12T07:51:24.396Z,14.06
2023-05-12T07:53:51.758Z,13.99
2023-05-12T07:56:19.073Z,14.02
2023-05-12T07:58:47.599Z,14.05
2023-05-12T08:01:15.319Z,14.10
2023-05-12T08:03:42.940Z,14.21
2023-05-12T08:06:10.668Z,14.13
2023-05-12T08:08:38.107Z,14.14
2023-05-12T08:11:05.951Z,14.16
2023-05-12T08:13:33.533Z,14.24
2023-05-12T08:16:01.102Z,14.26
2023-05-12T08:18:28.588Z,14.28
2023-05-12T08:20:56.239Z,14.46
2023-05-12T08:23:23.638Z,14.53
2023-05-12T08:25:51.572Z,14.50
2023-05-12T08:28:19.616Z,14.62
2023-05-12T08:30:47.232Z,14.52
2023-05-12T08:33:15.409Z,14.58
2023-05-12T08:35:42.833Z,14.38
2023-05-12T08:38:12.795Z,14.51
2023-05-12T08:40:50.165Z,14.47
2023-05-12T08:43:35.074Z,14.39
2023-05-12T08:46:02.802Z,14.34
2023-05-12T08:48:31.008Z,14.54
2023-05-12T08:50:58.882Z,14.54
2023-05-12T08:53:28.985Z,14.69
2023-05-12T08:57:09.048Z,14.78
2023-05-12T08:58:46.717Z,14.94
2023-05-12T09:01:15.189Z,14.76
2023-05-12T09:03:43.365Z,14.89
2023-05-12T09:06:11.928Z,14.96
2023-05-12T09:08:40.787Z,15.04
2023-05-12T09:11:13.168Z,15.22
2023-05-12T09:14:06.507Z,15.41
2023-05-12T09:16:38.186Z,15.45
2023-05-12T09:19:06.882Z,15.81
2023-05-12T09:21:34.896Z,15.76
2023-05-12T09:24:09.335Z,15.91
2023-05-12T09:26:50.045Z,16.39
2023-05-12T09:29:29.911Z,16.69
2023-05-12T09:32:02.271Z,16.63
2023-05-12T09:34:41.557Z,16.71
2023-05-12T09:37:09.498Z,16.47
2023-05-12T09:39:37.232Z,16.37
2023-05-12T09:42:10.506Z,16.16
2023-05-12T09:44:39.430Z,16.23
2023-05-12T09:47:10.765Z,16.06
2023-05-12T09:49:38.471Z,16.10
2023-05-12T09:52:06.141Z,16.18
2023-05-12T09:54:34.466Z,16.22
2023-05-12T09:57:05.065Z,16.40
2023-05-12T09:59:36.423Z,16.41
2023-05-12T10:02:06.874Z,16.59
2023-05-12T10:04:52.450Z,16.93
2023-05-12T10:07:24.086Z,16.88
2023-05-12T10:09:52.850Z,16.62
2023-05-12T10:12:19.850Z,16.48
2023-05-12T10:14:49.528Z,16.32
2023-05-12T10:17:22.867Z,16.29
2023-05-12T10:19:52.301Z,16.09
2023-05-12T10:22:20.358Z,15.98
2023-05-12T10:25:01.846Z,16.17
2023-05-12T10:27:37.271Z,16.20
2023-05-12T10:30:06.307Z,16.14
2023-05-12T10:32:33.763Z,16.03
2023-05-12T10:35:15.153Z,15.98
2023-05-12T10:37:43.889Z,15.71
2023-05-12T10:40:12.205Z,15.53
2023-05-12T10:42:42.596Z,15.50
2023-05-12T10:45:18.388Z,15.41
2023-05-12T10:47:47.948Z,15.42
2023-05-12T10:50:15.173Z,15.46
2023-05-12T10:52:56.422Z,15.41
2023-05-12T10:55:37.751Z,15.48
2023-05-12T10:58:08.709Z,15.54
2023-05-12T11:00:48.645Z,15.57
2023-05-12T11:03:19.419Z,15.87
2023-05-12T11:05:59.071Z,15.98
2023-05-12T11:08:28.334Z,15.95
2023-05-12T11:10:55.620Z,15.95
2023-05-12T11:13:23.091Z,15.96
2023-05-12T11:15:51.214Z,15.83
2023-05-12T11:18:24.255Z,15.89
2023-05-12T11:20:51.957Z,16.07
2023-05-12T11:23:29.614Z,16.49
2023-05-12T11:25:57.340Z,16.68
2023-05-12T11:28:24.991Z,16.68
2023-05-12T11:30:54.884Z,16.55
2023-05-12T11:33:23.332Z,16.59
2023-05-12T11:35:51.210Z,16.63
2023-05-12T11:38:20.285Z,16.32
2023-05-12T11:40:48.094Z,16.21
2023-05-12T11:43:22.084Z,16.37
2023-05-12T11:45:50.776Z,16.47
2023-05-12T11:48:18.557Z,16.27
2023-05-12T11:50:48.448Z,16.22
2023-05-12T11:53:18.897Z,16.28
2023-05-12T11:55:51.156Z,16.31
2023-05-12T11:58:31.015Z,16.37
2023-05-12T12:01:10.185Z,16.35
2023-05-12T12:03:48.757Z,16.23
2023-05-12T12:06:21.040Z,16.59
2023-05-12T12:08:58.180Z,16.71
2023-05-12T12:11:28.394Z,16.68
2023-05-12T12:13:59.316Z,16.91
2023-05-12T12:16:34.276Z,16.91
2023-05-12T12:19:02.027Z,16.76
2023-05-12T12:21:29.598Z,16.94
2023-05-12T12:23:59.041Z,16.87
2023-05-12T12:26:26.643Z,16.86
2023-05-12T12:28:56.590Z,16.78
2023-05-12T12:31:24.087Z,16.61
2023-05-12T12:33:51.749Z,16.49
2023-05-12T12:36:19.346Z,16.48
2023-05-12T12:38:46.957Z,16.51
2023-05-12T12:41:15.115Z,16.42
2023-05-12T12:43:43.383Z,16.44
2023-05-12T12:46:10.908Z,16.31
2023-05-12T12:48:38.055Z,16.37
2023-05-12T12:51:06.072Z,16.63
2023-05-12T12:53:36.317Z,17.06
2023-05-12T12:56:04.514Z,17.28
2023-05-12T12:58:31.570Z,16.89
2023-05-12T13:01:00.418Z,16.45
2023-05-12T13:03:27.585Z,15.85
2023-05-12T13:05:55.512Z,15.31
2023-05-12T13:08:22.535Z,15.15
2023-05-12T13:10:49.875Z,14.75
2023-05-12T13:13:17.239Z,14.53
2023-05-12T13:15:44.617Z,14.57
2023-05-12T13:18:12.158Z,14.37
2023-05-12T13:20:40.664Z,14.38
2023-05-12T13:23:07.680Z,14.27
2023-05-12T13:25:35.245Z,14.30
2023-05-12T13:28:02.924Z,14.27
2023-05-12T13:31:01.860Z,14.34
2023-05-12T13:33:29.209Z,14.39
2023-05-12T13:35:57.190Z,14.18
2023-05-12T13:38:24.735Z,14.28
2023-05-12T13:40:52.295Z,14.33
2023-05-12T13:43:19.692Z,14.13
2023-05-12T13:45:47.295Z,14.25
2023-05-12T13:48:15.780Z,14.34
2023-05-12T13:50:43.251Z,14.44
2023-05-12T13:53:10.344Z,14.49
2023-05-12T13:55:40.852Z,14.49
2023-05-12T13:58:08.156Z,14.63
2023-05-12T14:00:35.386Z,14.64
2023-05-12T14:03:02.977Z,14.80
2023-05-12T14:05:30.180Z,14.81
2023-05-12T14:07:57.284Z,14.68
2023-05-12T14:10:24.414Z,14.58
2023-05-12T14:12:53.896Z,14.72
2023-05-12T14:15:29.629Z,15.14
2023-05-12T14:18:00.127Z,15.05
2023-05-12T14:20:27.264Z,15.09
2023-05-12T14:22:54.662Z,15.10
2023-05-12T14:25:22.062Z,14.78
2023-05-12T14:27:49.363Z,14.91
2023-05-12T14:30:16.576Z,14.87
2023-05-12T14:32:43.971Z,14.65
2023-05-12T14:35:11.100Z,14.73
2023-05-12T14:37:38.510Z,14.89
2023-05-12T14:40:06.563Z,15.11
2023-05-12T14:42:34.168Z,15.32
2023-05-12T14:45:01.102Z,15.28
2023-05-12T14:47:28.123Z,15.51
2023-05-12T14:49:55.131Z,15.33
2023-05-12T14:52:22.469Z,15.19
2023-05-12T14:54:49.619Z,15.15
2023-05-12T14:57:16.770Z,15.30
2023-05-12T14:59:43.763Z,15.44
2023-05-12T15:02:10.969Z,15.65
2023-05-12T15:04:38.215Z,15.54
2023-05-12T15:07:06.086Z,15.69
2023-05-12T15:09:33.167Z,15.70
2023-05-12T15:12:00.210Z,15.85
2023-05-12T15:14:27.169Z,16.21
2023-05-12T15:16:54.201Z,16.48
2023-05-12T15:19:21.909Z,16.63
2023-05-12T15:21:48.992Z,16.88
2023-05-12T15:24:16.255Z,17.18
2023-05-12T15:26:43.280Z,17.23
2023-05-12T15:29:10.380Z,17.48
2023-05-12T15:31:41.619Z,17.50
2023-05-12T15:34:11.026Z,17.43
2023-05-12T15:36:38.495Z,17.42
2023-05-12T15:39:05.904Z,17.21
2023-05-12T15:41:33.280Z,17.45
2023-05-12T15:44:03.306Z,17.46
2023-05-12T15:46:33.858Z,17.38
2023-05-12T15:49:01.479Z,17.37
2023-05-12T15:51:29.888Z,17.01
2023-05-12T15:53:57.589Z,17.35
2023-05-12T15:56:25.053Z,17.19
2023-05-12T15:58:52.589Z,17.05
2023-05-12T16:01:19.983Z,17.12
2023-05-12T16:03:47.610Z,16.89
2023-05-12T16:06:15.820Z,16.56
2023-05-12T16:08:43.864Z,16.48
2023-05-12T16:11:14.750Z,16.41
2023-05-12T16:13:42.502Z,16.44
2023-05-12T16:16:10.015Z,16.32
2023-05-12T16:18:41.814Z,16.30
2023-05-12T16:21:10.435Z,16.32
2023-05-12T16:23:40.866Z,16.25
2023-05-12T16:26:09.232Z,16.17
2023-05-12T16:28:37.015Z,16.13
2023-05-12T16:31:04.720Z,16.12
2023-05-12T16:33:32.258Z,16.11
2023-05-12T16:35:59.899Z,16.11
2023-05-12T16:38:26.910Z,15.99
2023-05-12T16:40:54.061Z,16.04
2023-05-12T16:43:21.101Z,16.08
2023-05-12T16:45:48.222Z,16.09
2023-05-12T16:48:15.712Z,16.07
2023-05-12T16:50:43.277Z,16.05
2023-05-12T16:53:11.370Z,15.95
2023-05-12T16:55:38.821Z,15.90
2023-05-12T16:58:07.292Z,15.86
2023-05-12T17:00:35.397Z,15.79
2023-05-12T17:03:04.685Z,15.73
2023-05-12T17:05:32.572Z,15.72
2023-05-12T17:08:01.415Z,15.75
2023-05-12T17:10:29.602Z,15.73
2023-05-12T17:12:57.810Z,15.68
2023-05-12T17:15:30.799Z,15.60
2023-05-12T17:17:58.429Z,15.54
2023-05-12T17:20:25.611Z,15.64
2023-05-12T17:22:53.544Z,15.63
2023-05-12T17:25:22.120Z,15.60
2023-05-12T17:27:49.504Z,15.48
2023-05-12T17:30:18.694Z,15.34
2023-05-12T17:32:46.263Z,15.18
2023-05-12T17:35:13.488Z,15.06
2023-05-12T17:37:40.591Z,14.97
2023-05-12T17:40:08.467Z,15.09
2023-05-12T17:42:37.876Z,15.04
2023-05-12T17:45:05.657Z,15.10
2023-05-12T17:47:33.192Z,15.09
2023-05-12T17:50:00.437Z,15.11
2023-05-12T17:52:28.621Z,15.12
2023-05-12T17:54:57.400Z,15.05
2023-05-12T17:57:24.756Z,15.10
2023-05-12T17:59:51.913Z,14.99
2023-05-12T18:02:18.905Z,15.09
2023-05-12T18:04:46.909Z,15.15
2023-05-12T18:07:13.907Z,15.09
2023-05-12T18:09:41.917Z,15.01
2023-05-12T18:12:09.564Z,14.91
2023-05-12T18:14:36.952Z,14.91
2023-05-12T18:17:04.146Z,14.94
2023-05-12T18:19:31.593Z,14.96
2023-05-12T18:21:58.746Z,14.91
2023-05-12T18:24:25.761Z,14.94
2023-05-12T18:26:52.765Z,14.89
2023-05-12T18:29:19.766Z,14.86
2023-05-12T18:31:46.908Z,14.93
2023-05-12T18:34:14.090Z,14.86
2023-05-12T18:36:41.633Z,14.85
2023-05-12T18:39:10.598Z,14.83
2023-05-12T18:41:39.013Z,14.76
2023-05-12T18:44:08.828Z,14.74
2023-05-12T18:46:36.349Z,14.71
2023-05-12T18:49:03.901Z,14.68
2023-05-12T18:51:30.910Z,14.63
2023-05-12T18:53:58.906Z,14.59
2023-05-12T18:57:10.339Z,14.60
2023-05-12T18:59:37.667Z,14.57
2023-05-12T19:02:04.970Z,14.48
2023-05-12T19:04:32.384Z,14.49
2023-05-12T19:07:00.497Z,14.43
2023-05-12T19:09:28.006Z,14.37
2023-05-12T19:11:55.833Z,14.39
2023-05-12T19:14:23.103Z,14.37
2023-05-12T19:16:50.227Z,14.39
2023-05-12T19:19:18.307Z,14.36
2023-05-12T19:21:46.031Z,14.40
2023-05-12T19:24:13.902Z,14.36
2023-05-12T19:26:40.908Z,14.32
2023-05-12T19:29:08.321Z,14.27
2023-05-12T19:31:36.408Z,14.29
2023-05-12T19:34:03.727Z,14.23
2023-05-12T19:36:30.939Z,14.26
2023-05-12T19:39:00.495Z,14.24
2023-05-12T19:41:28.887Z,14.21
2023-05-12T19:43:56.558Z,14.14
2023-05-12T19:46:23.832Z,14.22
2023-05-12T19:48:54.297Z,14.22
2023-05-12T19:51:23.566Z,14.19
2023-05-12T19:53:50.548Z,14.07
2023-05-12T19:56:21.983Z,14.05
2023-05-12T19:58:50.400Z,14.05
2023-05-12T20:01:17.985Z,14.00
2023-05-12T20:03:45.939Z,14.00
2023-05-12T20:06:13.520Z,13.98
2023-05-12T20:08:41.153Z,13.95
2023-05-12T20:11:09.617Z,13.97
2023-05-12T20:13:37.126Z,13.96
2023-05-12T20:16:05.939Z,13.98
2023-05-12T20:18:33.515Z,13.91
2023-05-12T20:21:01.386Z,13.83
2023-05-12T20:23:28.785Z,13.78
2023-05-12T20:25:59.261Z,13.78
2023-05-12T20:28:26.868Z,13.72
2023-05-12T20:30:54.712Z,13.76
2023-05-12T20:33:22.368Z,13.70
2023-05-12T20:35:49.847Z,13.68
2023-05-12T20:38:17.542Z,13.67
2023-05-12T20:40:45.315Z,13.62
2023-05-12T20:43:14.433Z,13.54
2023-05-12T20:45:42.555Z,13.56
2023-05-12T20:48:11.063Z,13.43
2023-05-12T20:50:38.119Z,13.47
2023-05-12T20:53:05.243Z,13.42
2023-05-12T20:55:35.544Z,13.37
2023-05-12T20:58:02.991Z,13.37
2023-05-12T21:00:30.399Z,13.36
2023-05-12T21:02:58.797Z,13.41
2023-05-12T21:05:26.372Z,13.40
2023-05-12T21:07:53.779Z,13.41
2023-05-12T21:10:21.694Z,13.39
2023-05-12T21:12:49.203Z,13.44
2023-05-12T21:15:16.607Z,13.36
2023-05-12T21:17:43.703Z,13.28
2023-05-12T21:20:12.218Z,13.25
2023-05-12T21:22:40.831Z,13.21
2023-05-12T21:25:08.641Z,13.21
2023-05-12T21:27:42.365Z,13.15
2023-05-12T21:30:11.064Z,13.10
2023-05-12T21:32:38.550Z,13.03
2023-05-12T21:35:07.154Z,13.07
2023-05-12T21:37:37.196Z,13.13
2023-05-12T21:40:05.375Z,13.13
2023-05-12T21:42:32.461Z,13.10
2023-05-12T21:44:59.816Z,13.02
2023-05-12T21:47:26.848Z,12.91
2023-05-12T21:49:55.295Z,12.80
2023-05-12T21:52:22.947Z,12.73
2023-05-12T21:55:05.533Z,12.75
2023-05-12T21:57:48.324Z,12.69
2023-05-12T22:00:25.737Z,12.59
2023-05-12T22:02:53.168Z,12.55
2023-05-12T22:05:20.305Z,12.54
2023-05-12T22:07:47.919Z,12.48
2023-05-12T22:10:14.906Z,12.43
2023-05-12T22:12:42.317Z,12.41
2023-05-12T22:15:09.778Z,12.49
2023-05-12T22:17:36.858Z,12.43
2023-05-12T22:20:04.933Z,12.26
2023-05-12T22:22:31.924Z,12.12
2023-05-12T22:24:59.169Z,12.11
2023-05-12T22:27:26.180Z,12.22
2023-05-12T22:29:53.271Z,12.31
2023-05-12T22:32:20.814Z,12.29
2023-05-12T22:34:47.881Z,12.27
2023-05-12T22:37:14.973Z,12.23
2023-05-12T22:39:41.920Z,12.25
2023-05-12T22:42:08.888Z,12.17
2023-05-12T22:44:36.335Z,12.13
2023-05-12T22:47:03.385Z,12.11
2023-05-12T22:49:30.487Z,12.14
2023-05-12T22:51:57.782Z,12.17
2023-05-12T22:54:24.817Z,12.20
2023-05-12T22:56:51.771Z,12.18
2023-05-12T22:59:18.819Z,12.18
2023-05-12T23:01:46.374Z,12.19
2023-05-12T23:04:13.844Z,12.10
2023-05-12T23:06:40.984Z,12.18
2023-05-12T23:09:09.596Z,12.24
2023-05-12T23:11:36.613Z,12.17
2023-05-12T23:17:01.393Z,12.10
2023-05-12T23:19:28.908Z,12.11
2023-05-12T23:21:55.990Z,12.16
2023-05-12T23:24:23.442Z,12.21
2023-05-12T23:26:50.984Z,12.24
2023-05-12T23:29:18.194Z,12.24
2023-05-12T23:31:45.645Z,12.25
2023-05-12T23:34:13.014Z,12.25
2023-05-12T23:36:40.381Z,12.25
2023-05-12T23:39:07.376Z,12.29
2023-05-12T23:41:36.387Z,12.29
2023-05-12T23:44:03.832Z,12.33
2023-05-12T23:46:31.277Z,12.38
2023-05-12T23:48:58.429Z,12.32
2023-05-12T23:51:26.025Z,12.38
2023-05-12T23:53:53.012Z,12.43
2023-05-12T23:59:09.164Z,12.45
